Time;durP1;ratioP1;P1;durP2;ratioP2;P2;SDS_P1;SDS_P2;PMS_P1;PMS_P2;Temp;Humidity;BMP_temperature;BMP_pressure;BME280_temperature;BME280_humidity;BME280_pressure;Samples;Min_cycle;Max_cycle;Signal;HPM_P1;HPM_P2
2024/03/23 00:01:43;;;;;;;5.20;4.13;;;12.50;99.90;;;;;;5095542;28;20403;-70
2024/03/23 00:04:12;;;;;;;4.57;3.53;;;12.50;99.90;;;;;;5095498;28;20416;-72
2024/03/23 00:06:39;;;;;;;4.43;3.30;;;12.30;99.90;;;;;;5095737;28;20415;-73
2024/03/23 00:09:06;;;;;;;4.13;3.07;;;12.30;99.90;;;;;;5090683;28;20435;-71
2024/03/23 00:11:32;;;;;;;4.00;3.40;;;12.10;99.90;;;;;;5101282;28;20459;-73
2024/03/23 00:13:59;;;;;;;3.87;2.80;;;12.00;99.90;;;;;;5115903;28;20809;-71
2024/03/23 00:16:26;;;;;;;4.00;3.23;;;12.00;99.90;;;;;;5115829;28;20415;-72
2024/03/23 00:18:53;;;;;;;4.70;3.40;;;11.90;99.90;;;;;;5114739;28;20434;-73
2024/03/23 00:21:19;;;;;;;3.40;2.97;;;11.90;99.90;;;;;;5095365;28;20404;-73
2024/03/23 00:23:46;;;;;;;5.30;3.33;;;11.90;99.90;;;;;;5095453;28;20406;-73
2024/03/23 00:26:12;;;;;;;3.70;3.23;;;11.90;99.90;;;;;;5095808;28;20416;-72
2024/03/23 00:28:39;;;;;;;4.50;3.23;;;11.80;99.90;;;;;;5096025;28;20427;-71
2024/03/23 00:31:05;;;;;;;4.87;3.43;;;11.80;99.90;;;;;;5115551;28;20460;-71
2024/03/23 00:33:32;;;;;;;4.13;3.73;;;11.90;99.90;;;;;;5116098;28;20967;-72
2024/03/23 00:35:58;;;;;;;3.07;2.77;;;11.90;99.90;;;;;;5112531;28;20403;-72
2024/03/23 00:38:25;;;;;;;5.27;3.27;;;11.90;99.90;;;;;;5115033;28;20437;-71
2024/03/23 00:40:52;;;;;;;3.03;2.73;;;11.90;99.90;;;;;;5097734;28;20486;-71
2024/03/23 00:43:18;;;;;;;4.43;3.30;;;11.80;99.90;;;;;;5094748;28;20409;-70
2024/03/23 00:45:47;;;;;;;4.80;3.57;;;11.90;99.90;;;;;;5094708;28;20403;-71
2024/03/23 00:48:14;;;;;;;3.97;3.07;;;11.90;99.90;;;;;;5094476;28;20422;-70
2024/03/23 00:50:40;;;;;;;3.77;3.37;;;11.80;99.90;;;;;;5110373;28;20410;-72
2024/03/23 00:53:07;;;;;;;3.97;3.33;;;11.90;99.90;;;;;;5114849;28;20403;-71
2024/03/23 00:55:32;;;;;;;3.13;2.83;;;11.90;99.90;;;;;;5114741;28;20457;-69
2024/03/23 00:57:58;;;;;;;4.43;2.80;;;12.00;99.90;;;;;;5114643;28;20423;-69
2024/03/23 01:00:23;;;;;;;4.17;3.30;;;12.10;99.90;;;;;;5101097;28;20174;-69
2024/03/23 01:02:49;;;;;;;3.93;3.50;;;12.00;99.90;;;;;;5093146;28;20176;-68
2024/03/23 01:05:14;;;;;;;4.27;3.87;;;12.10;99.90;;;;;;5094155;28;20214;-69
2024/03/23 01:07:40;;;;;;;3.90;3.20;;;12.20;99.90;;;;;;5093985;28;20204;-68
2024/03/23 01:10:06;;;;;;;3.80;2.93;;;12.30;99.90;;;;;;5104929;28;20182;-69
2024/03/23 01:12:31;;;;;;;4.03;3.00;;;12.40;99.90;;;;;;5114386;28;20172;-69
2024/03/23 01:14:57;;;;;;;3.87;3.40;;;12.50;99.90;;;;;;5114256;28;20245;-69
2024/03/23 01:17:22;;;;;;;3.93;3.53;;;12.20;99.90;;;;;;5114356;28;20174;-70
2024/03/23 01:19:48;;;;;;;5.13;3.50;;;12.20;99.90;;;;;;5092458;28;20200;-70
2024/03/23 01:22:13;;;;;;;4.83;3.50;;;12.20;99.90;;;;;;5093987;28;20158;-71
2024/03/23 01:24:39;;;;;;;3.80;3.40;;;12.50;99.90;;;;;;5093565;28;20589;-70
2024/03/23 01:27:05;;;;;;;3.97;3.53;;;12.40;99.90;;;;;;5093814;28;20585;-68
2024/03/23 01:29:30;;;;;;;4.03;3.20;;;12.30;99.90;;;;;;5099396;28;20195;-69
2024/03/23 01:31:56;;;;;;;3.10;2.77;;;12.40;99.90;;;;;;5113979;28;20563;-70
2024/03/23 01:34:21;;;;;;;3.50;3.10;;;12.50;99.90;;;;;;5114027;28;20297;-69
2024/03/23 01:36:47;;;;;;;3.30;3.10;;;12.60;99.90;;;;;;5113488;28;20229;-71
2024/03/23 01:39:14;;;;;;;4.60;3.03;;;12.80;99.90;;;;;;5110833;28;20583;-70
2024/03/23 01:41:42;;;;;;;3.87;3.40;;;13.00;99.90;;;;;;5093469;28;20282;-68
2024/03/23 01:44:08;;;;;;;3.60;2.70;;;13.10;99.90;;;;;;5093692;28;20441;-69
2024/03/23 01:46:38;;;;;;;3.53;2.87;;;13.10;99.90;;;;;;5093392;28;20901;-71
2024/03/23 01:49:05;;;;;;;5.03;2.57;;;13.10;99.90;;;;;;5094711;28;20484;-70
2024/03/23 01:51:31;;;;;;;4.17;2.70;;;13.10;99.90;;;;;;5113680;28;20406;-70
2024/03/23 01:53:57;;;;;;;3.60;3.03;;;13.20;99.90;;;;;;5113636;28;20973;-72
2024/03/23 01:56:23;;;;;;;4.20;3.23;;;13.20;99.90;;;;;;5113987;28;20417;-72
2024/03/23 01:58:48;;;;;;;3.20;2.60;;;13.20;99.90;;;;;;5113505;28;20429;-70
2024/03/23 02:01:14;;;;;;;3.83;3.40;;;13.30;99.90;;;;;;5077410;28;20325;-70
2024/03/23 02:03:39;;;;;;;4.27;2.67;;;13.50;99.90;;;;;;5102330;28;20553;-70
2024/03/23 02:06:07;;;;;;;4.33;3.03;;;13.50;99.90;;;;;;5113545;28;20180;-71
2024/03/23 02:08:33;;;;;;;2.53;2.33;;;13.40;99.90;;;;;;5113655;28;20581;-71
2024/03/23 02:10:58;;;;;;;2.83;2.60;;;13.40;99.90;;;;;;5096224;28;20414;-71
2024/03/23 02:13:24;;;;;;;3.27;2.67;;;13.40;99.90;;;;;;5093122;28;20559;-71
2024/03/23 02:15:49;;;;;;;4.60;3.13;;;13.40;99.90;;;;;;5093435;28;20257;-71
2024/03/23 02:18:15;;;;;;;3.10;2.80;;;13.40;99.90;;;;;;5092858;28;20220;-72
2024/03/23 02:20:41;;;;;;;2.93;2.63;;;13.40;99.90;;;;;;5107422;28;20173;-69
2024/03/23 02:23:13;;;;;;;3.53;3.17;;;13.40;99.90;;;;;;5113219;28;20419;-71
2024/03/23 02:25:39;;;;;;;2.83;2.53;;;13.40;99.90;;;;;;5113419;28;20168;-72
2024/03/23 02:28:05;;;;;;;3.60;3.23;;;13.50;99.90;;;;;;5113368;28;20510;-71
2024/03/23 02:30:30;;;;;;;4.77;3.20;;;13.20;99.90;;;;;;5102631;28;20167;-72
2024/03/23 02:32:56;;;;;;;5.63;3.10;;;13.30;99.90;;;;;;5093026;28;20401;-71
2024/03/23 02:35:21;;;;;;;3.47;3.17;;;13.10;99.90;;;;;;5092704;28;20258;-71
2024/03/23 02:37:50;;;;;;;3.13;2.83;;;13.20;99.90;;;;;;5092609;28;20165;-71
2024/03/23 02:40:16;;;;;;;10.63;3.47;;;13.20;99.90;;;;;;5103521;28;20165;-71
2024/03/23 02:42:41;;;;;;;3.73;3.37;;;13.30;99.90;;;;;;5113154;28;20493;-68
2024/03/23 02:45:07;;;;;;;3.10;2.80;;;13.30;99.90;;;;;;5112810;28;20491;-70
2024/03/23 02:47:33;;;;;;;3.30;2.73;;;13.30;99.90;;;;;;5112942;28;20586;-69
2024/03/23 02:49:59;;;;;;;3.50;3.00;;;13.30;99.90;;;;;;5104817;28;20172;-70
2024/03/23 02:52:24;;;;;;;4.07;2.80;;;13.20;99.90;;;;;;5092479;28;20534;-69
2024/03/23 02:54:50;;;;;;;3.43;2.60;;;13.20;99.90;;;;;;5092445;28;20221;-68
2024/03/23 02:57:15;;;;;;;3.87;2.83;;;13.20;99.90;;;;;;5092689;28;20185;-70
2024/03/23 02:59:41;;;;;;;4.10;3.17;;;13.20;99.90;;;;;;5098179;28;20191;-69
2024/03/23 03:02:07;;;;;;;3.17;2.90;;;13.10;99.90;;;;;;5112689;28;20197;-71
2024/03/23 03:04:33;;;;;;;4.60;3.43;;;13.00;99.90;;;;;;5112976;28;20184;-71
2024/03/23 03:06:58;;;;;;;3.70;2.87;;;13.00;99.90;;;;;;5113061;28;20175;-70
2024/03/23 03:09:24;;;;;;;4.07;3.07;;;12.90;99.90;;;;;;5109793;28;20200;-70
2024/03/23 03:11:49;;;;;;;4.33;3.23;;;13.00;99.90;;;;;;5092373;28;20246;-70
2024/03/23 03:14:15;;;;;;;3.90;2.77;;;12.90;99.90;;;;;;5092060;28;20212;-71
2024/03/23 03:16:41;;;;;;;5.23;2.80;;;12.90;99.90;;;;;;5092398;28;20180;-70
2024/03/23 03:19:06;;;;;;;3.30;2.80;;;12.80;99.90;;;;;;5092529;28;20192;-70
2024/03/23 03:21:32;;;;;;;4.30;3.00;;;12.90;99.90;;;;;;5112478;28;20162;-71
2024/03/23 03:23:58;;;;;;;3.57;2.60;;;12.90;99.90;;;;;;5112450;28;20181;-70
2024/03/23 03:26:23;;;;;;;3.43;2.90;;;12.90;99.90;;;;;;5112449;28;20173;-70
2024/03/23 03:28:50;;;;;;;3.63;3.00;;;12.80;99.90;;;;;;5112617;28;20193;-70
2024/03/23 03:31:16;;;;;;;4.27;3.33;;;12.80;99.90;;;;;;5093811;28;20184;-70
2024/03/23 03:33:43;;;;;;;3.50;3.20;;;12.90;99.90;;;;;;5091997;28;21037;-70
2024/03/23 03:36:08;;;;;;;2.90;2.60;;;12.90;99.90;;;;;;5092023;28;20405;-69
2024/03/23 03:38:35;;;;;;;3.93;3.10;;;12.80;99.90;;;;;;5091724;28;20806;-71
2024/03/23 03:41:04;;;;;;;3.87;3.30;;;12.90;99.90;;;;;;5108076;28;20261;-71
2024/03/23 03:43:29;;;;;;;2.90;2.70;;;12.90;99.90;;;;;;5112337;28;20413;-70
2024/03/23 03:45:56;;;;;;;4.10;3.23;;;12.90;99.90;;;;;;5112245;28;20399;-71
2024/03/23 03:48:22;;;;;;;3.57;3.20;;;13.00;99.90;;;;;;5112150;28;20246;-71
2024/03/23 03:50:48;;;;;;;4.10;2.90;;;12.90;99.90;;;;;;5097849;28;20967;-70
2024/03/23 03:53:13;;;;;;;4.23;3.07;;;12.90;99.90;;;;;;5092108;28;20630;-72
2024/03/23 03:55:39;;;;;;;6.27;3.17;;;13.00;99.90;;;;;;5091884;28;20191;-71
2024/03/23 03:58:05;;;;;;;3.13;2.83;;;13.10;99.90;;;;;;5091788;28;20231;-69
2024/03/23 04:00:31;;;;;;;2.93;2.73;;;13.00;99.90;;;;;;5106344;28;20238;-71
2024/03/23 04:02:57;;;;;;;3.13;2.70;;;12.80;99.90;;;;;;5103719;28;20169;-71
2024/03/23 04:05:22;;;;;;;4.10;3.30;;;12.80;99.90;;;;;;5095652;28;20909;-71
2024/03/23 04:07:48;;;;;;;4.20;3.07;;;12.80;99.90;;;;;;5095910;28;20173;-70
2024/03/23 04:10:14;;;;;;;4.03;3.73;;;12.70;99.90;;;;;;5104872;28;20171;-73
2024/03/23 04:12:40;;;;;;;3.17;2.80;;;12.60;99.90;;;;;;5078892;28;20253;-70
2024/03/23 04:15:06;;;;;;;4.63;3.20;;;12.60;99.90;;;;;;5075175;28;20887;-71
2024/03/23 04:17:34;;;;;;;2.97;2.73;;;12.50;99.90;;;;;;5074975;28;20445;-69
2024/03/23 04:20:01;;;;;;;5.20;3.23;;;12.60;99.90;;;;;;5089065;28;20404;-70
2024/03/23 04:22:27;;;;;;;3.60;3.30;;;12.50;99.90;;;;;;5115769;28;20435;-71
2024/03/23 04:24:56;;;;;;;3.70;3.40;;;12.60;99.90;;;;;;5115537;28;20437;-69
2024/03/23 04:27:22;;;;;;;4.80;3.40;;;12.60;99.90;;;;;;5115843;28;20429;-70
2024/03/23 04:29:49;;;;;;;4.57;3.90;;;12.60;99.90;;;;;;5109947;28;20456;-71
2024/03/23 04:32:15;;;;;;;3.50;3.03;;;12.60;99.90;;;;;;5094975;28;20395;-71
2024/03/23 04:34:41;;;;;;;7.37;3.37;;;12.80;99.90;;;;;;5094877;28;20465;-70
2024/03/23 04:37:07;;;;;;;6.07;4.27;;;12.90;99.90;;;;;;5094618;28;20168;-69
2024/03/23 04:39:33;;;;;;;4.53;3.97;;;12.80;99.90;;;;;;5100224;28;20200;-71
2024/03/23 04:41:58;;;;;;;4.63;3.53;;;12.60;99.90;;;;;;5115236;28;20401;-70
2024/03/23 04:44:24;;;;;;;3.30;2.80;;;12.70;99.90;;;;;;5115352;28;20168;-70
2024/03/23 04:46:49;;;;;;;3.30;3.00;;;12.80;99.90;;;;;;5115276;28;20255;-69
2024/03/23 04:49:15;;;;;;;4.10;3.20;;;12.80;99.90;;;;;;5114767;28;20294;-70
2024/03/23 04:51:45;;;;;;;3.83;3.43;;;12.80;99.90;;;;;;5094587;28;20521;-69
2024/03/23 04:54:15;;;;;;;5.80;4.60;;;12.90;99.90;;;;;;5094340;28;20203;-71
2024/03/23 04:56:40;;;;;;;5.33;4.70;;;12.90;99.90;;;;;;5094433;28;20406;-68
2024/03/23 04:59:06;;;;;;;6.10;5.07;;;12.90;99.90;;;;;;5094303;28;20471;-70
2024/03/23 05:01:32;;;;;;;6.07;5.20;;;12.70;99.90;;;;;;5113764;28;20168;-70
2024/03/23 05:03:58;;;;;;;7.67;6.07;;;12.60;99.90;;;;;;5114593;28;20187;-70
2024/03/23 05:06:24;;;;;;;11.43;8.50;;;12.70;99.90;;;;;;5114520;28;20517;-70
2024/03/23 05:08:50;;;;;;;43.53;25.27;;;12.70;99.90;;;;;;5114442;28;20425;-71
2024/03/23 05:11:16;;;;;;;27.47;16.17;;;12.50;99.90;;;;;;5096332;28;20421;-70
2024/03/23 05:13:43;;;;;;;14.03;11.27;;;12.40;99.90;;;;;;5093845;28;20473;-70
2024/03/23 05:16:08;;;;;;;13.70;10.93;;;12.20;99.90;;;;;;5093964;28;20399;-71
2024/03/23 05:18:35;;;;;;;15.47;10.50;;;12.20;99.90;;;;;;5093882;28;20435;-71
2024/03/23 05:21:00;;;;;;;11.10;9.37;;;12.20;99.90;;;;;;5108769;28;20178;-70
2024/03/23 05:23:27;;;;;;;11.50;10.23;;;12.20;99.90;;;;;;5095875;28;20499;-71
2024/03/23 05:25:53;;;;;;;13.10;11.80;;;12.00;99.90;;;;;;5114433;28;20170;-71
2024/03/23 05:28:19;;;;;;;14.57;12.97;;;11.90;99.90;;;;;;5113987;28;20847;-70
2024/03/23 05:30:49;;;;;;;14.07;12.53;;;11.80;99.90;;;;;;5101816;28;20652;-71
2024/03/23 05:33:15;;;;;;;15.00;13.40;;;11.60;99.90;;;;;;5093665;28;20524;-72
2024/03/23 05:35:41;;;;;;;14.93;13.33;;;11.60;99.90;;;;;;5092338;28;20443;-70
2024/03/23 05:38:06;;;;;;;16.33;13.40;;;11.50;99.90;;;;;;5092368;28;20259;-71
2024/03/23 05:40:32;;;;;;;15.80;13.77;;;11.60;99.90;;;;;;5093545;28;20162;-71
2024/03/23 05:42:57;;;;;;;15.53;13.60;;;11.50;99.90;;;;;;5093544;28;20174;-71
2024/03/23 05:45:23;;;;;;;23.53;20.40;;;11.60;99.90;;;;;;5093661;28;20249;-71
2024/03/23 05:47:48;;;;;;;34.13;30.30;;;11.70;99.90;;;;;;5094851;28;20169;-71
2024/03/23 05:50:14;;;;;;;37.47;33.37;;;11.50;99.90;;;;;;5113832;28;20173;-70
2024/03/23 05:52:40;;;;;;;30.00;26.77;;;11.60;99.90;;;;;;5113685;28;20175;-71
2024/03/23 05:55:06;;;;;;;42.20;36.03;;;11.60;99.90;;;;;;5113499;28;20636;-71
2024/03/23 05:57:32;;;;;;;24.20;20.13;;;11.50;99.90;;;;;;5113453;28;20192;-71
2024/03/23 05:59:57;;;;;;;17.53;14.20;;;11.40;99.90;;;;;;5105698;28;20438;-70
2024/03/23 06:02:24;;;;;;;25.43;22.83;;;11.30;99.90;;;;;;5113430;28;20175;-70
2024/03/23 06:04:49;;;;;;;35.27;29.07;;;11.10;99.90;;;;;;5101027;28;20218;-70
2024/03/23 06:07:15;;;;;;;13.37;11.17;;;10.90;99.90;;;;;;5093053;28;20403;-70
2024/03/23 06:09:41;;;;;;;7.83;7.00;;;10.90;99.90;;;;;;5109829;28;20271;-69
2024/03/23 06:12:07;;;;;;;13.67;12.27;;;10.80;99.90;;;;;;5113401;28;20172;-71
2024/03/23 06:14:34;;;;;;;14.27;12.77;;;10.90;99.90;;;;;;5094918;28;20454;-71
2024/03/23 06:17:00;;;;;;;12.33;11.13;;;10.90;99.90;;;;;;5113553;28;20804;-70
2024/03/23 06:19:27;;;;;;;9.50;8.63;;;10.90;99.90;;;;;;5098319;28;20537;-70
2024/03/23 06:21:56;;;;;;;16.30;14.60;;;10.90;99.90;;;;;;5092506;28;20396;-71
2024/03/23 06:24:24;;;;;;;42.03;35.80;;;10.90;99.90;;;;;;5092749;28;20755;-71
2024/03/23 06:26:50;;;;;;;16.60;12.63;;;10.90;99.90;;;;;;5092631;28;20933;-71
2024/03/23 06:29:15;;;;;;;20.80;17.43;;;10.90;99.90;;;;;;5101727;28;20442;-70
2024/03/23 06:31:41;;;;;;;10.93;9.20;;;10.90;99.90;;;;;;5099791;28;20268;-70
2024/03/23 06:34:07;;;;;;;5.27;4.00;;;10.80;99.90;;;;;;5108370;28;20198;-69
2024/03/23 06:36:32;;;;;;;11.37;10.27;;;10.70;99.90;;;;;;5112529;28;20175;-69
2024/03/23 06:38:58;;;;;;;3.53;3.23;;;10.70;99.90;;;;;;5112701;28;20636;-70
2024/03/23 06:41:25;;;;;;;5.00;4.50;;;10.70;99.90;;;;;;5112384;28;20665;-68
2024/03/23 06:43:50;;;;;;;5.87;4.97;;;10.80;99.90;;;;;;5092385;28;20543;-70
2024/03/23 06:46:16;;;;;;;5.30;4.77;;;10.70;99.90;;;;;;5092473;28;20402;-68
2024/03/23 06:48:41;;;;;;;5.13;2.33;;;10.60;99.90;;;;;;5092487;28;20648;-68
2024/03/23 06:51:07;;;;;;;3.30;3.00;;;10.60;99.90;;;;;;5092483;28;20580;-69
2024/03/23 06:53:32;;;;;;;2.10;1.30;;;10.60;99.90;;;;;;5091023;28;20168;-70
2024/03/23 06:55:58;;;;;;;1.63;0.90;;;10.60;99.90;;;;;;5091144;28;20222;-70
2024/03/23 06:58:24;;;;;;;2.70;1.80;;;10.40;99.90;;;;;;5092363;28;20686;-70
2024/03/23 07:00:50;;;;;;;1.40;1.30;;;10.40;99.90;;;;;;5092630;28;20295;-69
2024/03/23 07:03:19;;;;;;;1.70;1.33;;;10.40;99.90;;;;;;5092499;28;20911;-70
2024/03/23 07:05:46;;;;;;;2.03;1.70;;;10.50;99.90;;;;;;5091145;28;20173;-70
2024/03/23 07:08:12;;;;;;;3.67;2.63;;;10.40;99.90;;;;;;5092565;28;20426;-69
2024/03/23 07:10:40;;;;;;;1.23;0.80;;;10.40;99.90;;;;;;5092508;28;20406;-70
2024/03/23 07:13:06;;;;;;;1.43;1.30;;;10.40;99.90;;;;;;5092419;28;20410;-70
2024/03/23 07:15:31;;;;;;;2.20;2.00;;;10.50;99.90;;;;;;5092355;28;20443;-70
2024/03/23 07:17:57;;;;;;;1.00;0.90;;;10.40;99.90;;;;;;5092358;28;20188;-70
2024/03/23 07:20:22;;;;;;;0.87;0.70;;;10.40;99.90;;;;;;5092179;28;20230;-70
2024/03/23 07:22:48;;;;;;;1.70;0.60;;;10.50;99.90;;;;;;5092415;28;20542;-70
2024/03/23 07:25:14;;;;;;;0.97;0.73;;;10.30;99.90;;;;;;5092399;28;20171;-70
2024/03/23 07:27:40;;;;;;;0.90;0.60;;;10.30;99.90;;;;;;5074195;28;20923;-69
2024/03/23 07:30:06;;;;;;;0.83;0.60;;;10.30;99.90;;;;;;5092315;28;20167;-69
2024/03/23 07:32:32;;;;;;;1.53;0.53;;;10.30;99.90;;;;;;5092165;28;20253;-69
2024/03/23 07:34:57;;;;;;;0.80;0.57;;;10.50;99.90;;;;;;5094329;28;20544;-72
2024/03/23 07:37:23;;;;;;;0.80;0.60;;;10.50;99.90;;;;;;5096391;28;20199;-71
2024/03/23 07:39:48;;;;;;;0.70;0.57;;;10.60;99.90;;;;;;5096963;28;20198;-72
2024/03/23 07:42:14;;;;;;;0.80;0.60;;;10.70;99.90;;;;;;5097011;28;20164;-71
2024/03/23 07:44:40;;;;;;;0.70;0.50;;;10.50;99.90;;;;;;5097148;28;20193;-71
2024/03/23 07:47:05;;;;;;;0.70;0.50;;;10.60;99.90;;;;;;5096179;28;20172;-71
2024/03/23 07:49:31;;;;;;;1.00;0.57;;;10.60;99.90;;;;;;5096751;28;20195;-70
2024/03/23 07:51:56;;;;;;;0.80;0.60;;;10.50;99.90;;;;;;5096487;28;20588;-71
2024/03/23 07:54:22;;;;;;;1.07;0.67;;;10.40;99.90;;;;;;5095788;28;20574;-70
2024/03/23 07:56:47;;;;;;;2.33;0.60;;;10.40;99.90;;;;;;5095834;28;20638;-70
2024/03/23 07:59:13;;;;;;;0.80;0.50;;;10.20;99.90;;;;;;5095468;28;20216;-68
2024/03/23 08:01:39;;;;;;;1.10;0.60;;;9.90;99.90;;;;;;5095478;28;20223;-69
2024/03/23 08:04:06;;;;;;;0.90;0.60;;;9.70;99.90;;;;;;5095775;28;20161;-69
2024/03/23 08:06:31;;;;;;;0.90;0.80;;;9.70;99.90;;;;;;5095744;28;20516;-70
2024/03/23 08:09:00;;;;;;;1.10;1.00;;;9.50;99.90;;;;;;5095576;28;20447;-70
2024/03/23 08:11:27;;;;;;;0.90;0.80;;;9.40;99.90;;;;;;5095193;28;20207;-70
2024/03/23 08:13:53;;;;;;;1.30;1.00;;;9.30;99.90;;;;;;5095365;28;20460;-70
2024/03/23 08:16:19;;;;;;;1.27;1.10;;;9.30;99.90;;;;;;5095262;28;20395;-70
2024/03/23 08:18:44;;;;;;;2.20;1.10;;;9.40;99.90;;;;;;5095175;28;20908;-70
2024/03/23 08:21:10;;;;;;;1.33;1.13;;;9.40;99.90;;;;;;5095247;28;20194;-70
2024/03/23 08:23:37;;;;;;;1.47;1.03;;;9.60;99.90;;;;;;5094920;28;20179;-70
2024/03/23 08:26:08;;;;;;;1.53;1.10;;;9.70;99.90;;;;;;5095040;28;20172;-71
2024/03/23 08:28:34;;;;;;;1.20;0.97;;;9.90;99.90;;;;;;5094917;28;20790;-69
2024/03/23 08:31:05;;;;;;;1.00;0.83;;;10.00;99.90;;;;;;5094976;28;20483;-70
2024/03/23 08:33:31;;;;;;;1.30;0.90;;;9.90;99.90;;;;;;5094953;28;20161;-70
2024/03/23 08:36:01;;;;;;;1.30;1.03;;;10.00;99.90;;;;;;5095513;28;20415;-71
2024/03/23 08:38:27;;;;;;;1.00;0.90;;;10.00;99.90;;;;;;5094819;28;20285;-69
2024/03/23 08:41:11;;;;;;;1.33;1.23;;;9.90;99.90;;;;;;5094785;28;20548;-69
2024/03/23 08:43:41;;;;;;;1.10;0.93;;;9.90;99.90;;;;;;5095043;28;20401;-70
2024/03/23 08:46:16;;;;;;;1.40;1.30;;;9.90;99.90;;;;;;5094570;28;20891;-70
2024/03/23 08:48:45;;;;;;;1.77;1.10;;;9.90;99.90;;;;;;5094478;28;20421;-69
2024/03/23 08:51:12;;;;;;;1.80;1.33;;;10.00;99.90;;;;;;5094756;28;20434;-70
2024/03/23 08:53:38;;;;;;;1.40;1.00;;;10.20;99.90;;;;;;5094559;28;20398;-70
2024/03/23 08:56:06;;;;;;;1.43;1.33;;;10.10;99.90;;;;;;5094584;28;20413;-69
2024/03/23 08:58:32;;;;;;;1.50;1.20;;;10.00;99.90;;;;;;5094439;28;20451;-70
2024/03/23 09:01:10;;;;;;;1.10;0.97;;;10.00;99.90;;;;;;5094291;28;20405;-72
2024/03/23 09:03:36;;;;;;;3.70;2.00;;;10.00;99.90;;;;;;5094264;28;20492;-69
2024/03/23 09:06:09;;;;;;;1.40;1.27;;;10.30;99.90;;;;;;5094248;28;20494;-71
2024/03/23 09:08:36;;;;;;;2.63;1.50;;;10.50;99.90;;;;;;5094188;28;20426;-71
2024/03/23 09:11:12;;;;;;;2.53;1.60;;;10.60;99.90;;;;;;5094329;28;20399;-71
2024/03/23 09:13:49;;;;;;;1.60;1.50;;;10.50;99.90;;;;;;5094485;28;20497;-70
2024/03/23 09:16:14;;;;;;;1.43;1.23;;;10.50;99.90;;;;;;5060619;28;20949;-70
2024/03/23 09:18:40;;;;;;;3.00;1.70;;;10.40;99.90;;;;;;5094131;28;20417;-71
2024/03/23 09:21:13;;;;;;;3.63;2.20;;;10.40;99.90;;;;;;5094088;28;20222;-70
2024/03/23 09:23:39;;;;;;;7.17;2.40;;;10.40;99.90;;;;;;5093763;28;20157;-71
2024/03/23 09:26:07;;;;;;;4.60;3.20;;;10.40;99.90;;;;;;5093857;28;20419;-70
2024/03/23 09:28:33;;;;;;;2.93;2.50;;;10.20;99.90;;;;;;5094165;28;20212;-70
2024/03/23 09:31:09;;;;;;;4.83;2.67;;;10.20;99.90;;;;;;5093822;28;20400;-69
2024/03/23 09:33:35;;;;;;;5.23;3.43;;;10.30;99.90;;;;;;5093741;28;20658;-70
2024/03/23 09:36:05;;;;;;;7.43;4.00;;;10.30;99.90;;;;;;5093884;28;20406;-69
2024/03/23 09:38:30;;;;;;;3.83;2.73;;;10.30;99.90;;;;;;5093532;28;20435;-70
2024/03/23 09:40:57;;;;;;;5.60;3.30;;;10.40;99.90;;;;;;5093662;28;20404;-70
2024/03/23 09:43:23;;;;;;;5.43;3.50;;;10.60;99.90;;;;;;5094007;28;20212;-70
2024/03/23 09:45:49;;;;;;;7.10;3.90;;;10.80;99.90;;;;;;5093713;28;20403;-71
2024/03/23 09:48:15;;;;;;;4.10;3.00;;;11.00;99.90;;;;;;5093515;28;20216;-71
2024/03/23 09:50:43;;;;;;;4.10;2.80;;;10.90;99.90;;;;;;5093357;28;20766;-72
2024/03/23 09:53:11;;;;;;;7.10;3.13;;;10.90;99.90;;;;;;5093435;28;20395;-71
2024/03/23 09:55:37;;;;;;;7.80;3.23;;;10.90;99.90;;;;;;5093566;28;20457;-71
2024/03/23 09:58:04;;;;;;;4.87;3.80;;;10.90;99.90;;;;;;5092716;28;20869;-72
2024/03/23 10:00:31;;;;;;;5.83;3.43;;;10.90;99.90;;;;;;5093361;28;20400;-74
2024/03/23 10:03:04;;;;;;;6.70;3.70;;;11.00;99.90;;;;;;5093342;28;20928;-72
2024/03/23 10:05:36;;;;;;;8.60;4.13;;;10.90;99.90;;;;;;5093638;28;20387;-73
2024/03/23 10:08:19;;;;;;;7.13;4.40;;;10.80;99.90;;;;;;5093143;28;20938;-73
2024/03/23 10:10:46;;;;;;;7.20;4.30;;;10.80;99.90;;;;;;5093391;28;20392;-71
2024/03/23 10:13:23;;;;;;;6.60;4.17;;;10.90;99.90;;;;;;5093324;28;20401;-71
2024/03/23 10:15:55;;;;;;;6.17;3.93;;;10.90;99.90;;;;;;5093337;28;20443;-73
2024/03/23 10:18:22;;;;;;;6.43;4.13;;;11.00;99.90;;;;;;5074844;28;20424;-72
2024/03/23 10:21:08;;;;;;;8.50;3.97;;;11.10;99.90;;;;;;5092940;28;20395;-72
2024/03/23 10:23:38;;;;;;;6.00;3.50;;;11.00;99.90;;;;;;5093182;28;20385;-70
2024/03/23 10:26:21;;;;;;;4.53;3.20;;;10.90;99.90;;;;;;5093059;28;20406;-73
2024/03/23 10:28:53;;;;;;;8.40;4.10;;;10.90;99.90;;;;;;5092796;28;20419;-72
2024/03/23 10:31:19;;;;;;;6.20;3.73;;;10.80;99.90;;;;;;5093083;28;20406;-71
2024/03/23 10:33:46;;;;;;;5.00;3.42;;;11.10;99.90;;;;;;5091922;28;20408;-72
2024/03/23 10:36:12;;;;;;;6.20;4.20;;;11.30;99.90;;;;;;5092728;28;20165;-72
2024/03/23 10:38:43;;;;;;;5.43;3.63;;;11.30;99.90;;;;;;5092489;28;20512;-73
2024/03/23 10:41:12;;;;;;;6.40;3.77;;;11.10;99.90;;;;;;5092618;28;20953;-73
2024/03/23 10:43:38;;;;;;;6.90;4.07;;;10.90;99.90;;;;;;5092644;28;20623;-72
2024/03/23 10:46:04;;;;;;;4.90;3.43;;;10.80;99.90;;;;;;5092487;28;20436;-72
2024/03/23 10:48:32;;;;;;;5.53;3.43;;;10.90;99.90;;;;;;5092492;28;20447;-72
2024/03/23 10:50:57;;;;;;;9.83;3.93;;;11.10;99.90;;;;;;5092502;28;20409;-71
2024/03/23 10:53:26;;;;;;;10.50;4.53;;;10.80;99.90;;;;;;5092431;28;20422;-73
2024/03/23 10:55:54;;;;;;;8.87;4.37;;;10.30;99.90;;;;;;5092350;28;20218;-73
2024/03/23 10:58:24;;;;;;;9.33;3.93;;;10.00;99.90;;;;;;5092369;28;20424;-71
2024/03/23 11:00:50;;;;;;;4.80;4.00;;;9.10;99.90;;;;;;5092384;28;20381;-70
2024/03/23 11:03:38;;;;;;;6.13;3.60;;;8.90;99.90;;;;;;5092487;28;20491;-70
2024/03/23 11:06:05;;;;;;;6.70;3.90;;;8.40;99.90;;;;;;5092689;28;20554;-75
2024/03/23 11:08:35;;;;;;;3.07;2.67;;;8.10;99.90;;;;;;5092407;28;20772;-75
2024/03/23 11:11:23;;;;;;;5.30;2.60;;;7.80;99.90;;;;;;5096526;28;20413;-74
2024/03/23 11:13:53;;;;;;;3.87;2.70;;;7.70;99.90;;;;;;5096371;28;20402;-75
2024/03/23 11:16:24;;;;;;;4.70;2.10;;;7.70;99.90;;;;;;5096798;28;20402;-74
2024/03/23 11:18:51;;;;;;;2.20;2.00;;;7.90;99.90;;;;;;5096651;28;20516;-74
2024/03/23 11:21:54;;;;;;;3.93;2.80;;;8.40;99.90;;;;;;5097009;28;20397;-74
2024/03/23 11:24:21;;;;;;;3.03;2.20;;;9.00;99.90;;;;;;5096326;28;20412;-71
2024/03/23 11:26:47;;;;;;;4.63;3.17;;;9.20;99.90;;;;;;5096725;28;20777;-73
2024/03/23 11:29:14;;;;;;;6.10;2.50;;;9.20;99.90;;;;;;5096107;28;20435;-73
2024/03/23 11:31:50;;;;;;;5.33;2.73;;;9.50;99.90;;;;;;5097617;28;20898;-73
2024/03/23 11:34:16;;;;;;;3.10;2.40;;;10.20;99.90;;;;;;5096070;28;20951;-73
2024/03/23 11:36:45;;;;;;;4.80;2.73;;;10.80;99.90;;;;;;5096088;28;20406;-74
2024/03/23 11:39:14;;;;;;;2.97;2.50;;;11.10;99.90;;;;;;5095874;28;20512;-74
2024/03/23 11:41:50;;;;;;;6.37;2.60;;;10.70;99.90;;;;;;5096011;28;20429;-73
2024/03/23 11:44:23;;;;;;;3.57;2.50;;;10.30;99.90;;;;;;5095903;28;20428;-73
2024/03/23 11:46:49;;;;;;;3.97;2.40;;;10.80;99.90;;;;;;5095898;28;20477;-73
2024/03/23 11:49:26;;;;;;;3.43;1.97;;;12.20;99.90;;;;;;5095833;28;20586;-74
2024/03/23 11:51:54;;;;;;;3.23;2.50;;;14.20;99.90;;;;;;5095720;28;20418;-74
2024/03/23 11:54:26;;;;;;;3.43;2.00;;;14.30;99.90;;;;;;5095822;28;20454;-73
2024/03/23 11:56:59;;;;;;;3.07;1.70;;;14.00;99.90;;;;;;5095655;28;20401;-73
2024/03/23 11:59:39;;;;;;;2.90;2.10;;;13.60;99.90;;;;;;5095784;28;20514;-74
2024/03/23 12:02:10;;;;;;;4.50;2.00;;;13.20;99.90;;;;;;5077328;28;20505;-74
2024/03/23 12:04:37;;;;;;;3.40;1.80;;;12.80;99.90;;;;;;5095455;28;20403;-73
2024/03/23 12:07:20;;;;;;;3.07;1.73;;;12.30;99.90;;;;;;5095472;28;20421;-73
2024/03/23 12:09:47;;;;;;;2.60;1.60;;;11.80;99.90;;;;;;5095315;28;20430;-73
2024/03/23 12:12:17;;;;;;;4.17;2.00;;;11.60;99.90;;;;;;5095287;28;20416;-72
2024/03/23 12:15:08;;;;;;;4.10;1.70;;;11.90;99.90;;;;;;5095213;28;20449;-73
2024/03/23 12:17:34;;;;;;;3.80;2.23;;;12.00;99.90;;;;;;5095071;28;20391;-72
2024/03/23 12:20:00;;;;;;;4.67;2.43;;;11.80;99.90;;;;;;5094599;28;20412;-72
2024/03/23 12:22:26;;;;;;;7.97;3.03;;;11.80;99.90;;;;;;5076923;28;20402;-73
2024/03/23 12:24:52;;;;;;;4.10;1.90;;;11.50;99.90;;;;;;5095060;28;20469;-70
2024/03/23 12:27:18;;;;;;;7.00;2.33;;;11.60;99.90;;;;;;5095396;28;20177;-73
2024/03/23 12:29:45;;;;;;;4.07;2.20;;;11.80;99.90;;;;;;5095157;28;20415;-72
2024/03/23 12:32:11;;;;;;;4.20;2.20;;;12.10;99.90;;;;;;5094928;28;20583;-71
2024/03/23 12:34:37;;;;;;;4.07;1.60;;;12.20;99.90;;;;;;5094864;28;20471;-74
2024/03/23 12:37:03;;;;;;;6.00;2.33;;;12.90;99.20;;;;;;5095084;28;20865;-73
2024/03/23 12:39:28;;;;;;;6.50;2.10;;;13.70;99.90;;;;;;5094920;28;20208;-74
2024/03/23 12:41:54;;;;;;;7.90;2.53;;;15.10;96.10;;;;;;5095028;28;20172;-72
2024/03/23 12:44:20;;;;;;;5.53;1.87;;;15.40;95.60;;;;;;5095351;28;20700;-74
2024/03/23 12:46:46;;;;;;;5.37;2.60;;;14.20;94.70;;;;;;5095159;28;20655;-74